Hopewell Junction, NY (12533)

3:50 PM EDT on May 24, 2015 (GMT -0400)
Vitek Backyard | | Change Station
CLOSE
Current Station
Personal Weather Station
Location: Hopewell Junction, NY
Elevation: 266 ft
Nearby Weather Stations

Elev 266 ft 41.59 °N, 73.83 °W | Updated 9 minutes ago

Partly Cloudy
Partly Cloudy
82.8 °F
Feels Like 80 °F
N
2.2
Wind Variable Wind from NW

Today
High -- | Low -- °F
--% Chance of Precip.
Yesterday
High -- | Low -- °F
Precip. -- in
5:28 AM 8:16 PM
Waxing Crescent, 41% visible
Pressure 30.22 in
Visibility 10.0 miles
Clouds Clear
Heat Index 80 °F
Dew Point 38 °F
Humidity 20%
Rainfall 0.00 in
Snow Depth Not available.
UV 9 out of 12
Pollen 9.60 out of 12
Air Quality Not available.
Flu Activity Widespread
METAR KPOU 241853Z 23008KT 10SM CLR 26/03 A3022 RMK AO2 SLP231 T02610028

More Conditions Fewer Conditions

Pressure 30.22 in
Visibility 10.0 miles
Clouds Clear
Heat Index 80 °F
Dew Point 38 °F
Humidity 20%
Rainfall 0.00 in
Snow Depth Not available.
UV 9 out of 12
Pollen 9.60 out of 12
Air Quality Not available.
Flu Activity Widespread
METAR KPOU 241853Z 23008KT 10SM CLR 26/03 A3022 RMK AO2 SLP231 T02610028

More Conditions Fewer Conditions

10-Day Weather Forecast

Almanac

Astronomy

May. 24, 2015 Rise Set
Actual Time
Civil Twilight
Nautical Twilight
Astronomical Twilight
Moon
Length of Visible Light
Length of Day
Tomorrow will be .
, % of the Moon is Illuminated

Today's Extremes

State Highs State Lows

Community

WunderPhotos

Upload Photos

1,823,844 photos uploaded!

WunderBlogs® & News

Nearby

Air Quality

  Air Quality AQ Index Pollutant
Not available.

Snow Depth

Station Depth Elevation

Earthquake Activity

City Distance Mag. Time & Date
Minimum magnitude displayed is 2.5.

Coastal Water Temperatures

Place Temperature

Stations

Nearby Weather Stations

Station Location Temp. Windchill Dew Point Humidity Wind Precip. Elev Updated Type